createdAt,value
2017-06-22T00:00:51.600Z,1008.3
2017-06-22T00:01:53.315Z,1008.3
2017-06-22T00:02:55.105Z,1008.3
2017-06-22T00:03:56.862Z,1008.3
2017-06-22T00:04:58.649Z,1008.3
2017-06-22T00:06:00.385Z,1008.3
2017-06-22T00:07:02.187Z,1008.3
2017-06-22T00:08:03.966Z,1008.3
2017-06-22T00:09:05.797Z,1008.3
2017-06-22T00:10:07.524Z,1008.2
2017-06-22T00:11:09.336Z,1008.2
2017-06-22T00:12:11.085Z,1008.2
2017-06-22T00:13:12.924Z,1008.2
2017-06-22T00:14:14.641Z,1008.2
2017-06-22T00:15:17.488Z,1008.2
2017-06-22T00:16:19.217Z,1008.2
2017-06-22T00:17:20.967Z,1008.2
2017-06-22T00:18:22.745Z,1008.2
2017-06-22T00:19:24.691Z,1008.1
2017-06-22T00:20:26.362Z,1008.2
2017-06-22T00:21:28.191Z,1008.2
2017-06-22T00:22:29.946Z,1008.1
2017-06-22T00:23:31.712Z,1008.1
2017-06-22T00:24:33.527Z,1008.1
2017-06-22T00:25:35.405Z,1008.0
2017-06-22T00:26:37.100Z,1008.0
2017-06-22T00:27:39.973Z,1008.0
2017-06-22T00:28:41.722Z,1008.0
2017-06-22T00:29:43.472Z,1007.9
2017-06-22T00:30:45.615Z,1007.9
2017-06-22T00:31:47.495Z,1007.9
2017-06-22T00:32:49.340Z,1007.9
2017-06-22T00:33:51.126Z,1007.8
2017-06-22T00:34:52.923Z,1007.9
2017-06-22T00:35:54.729Z,1007.9
2017-06-22T00:36:56.524Z,1007.9
2017-06-22T00:37:58.306Z,1007.9
2017-06-22T00:39:00.099Z,1007.9
2017-06-22T00:40:01.942Z,1007.9
2017-06-22T00:41:04.458Z,1007.9
2017-06-22T00:42:06.355Z,1007.9
2017-06-22T00:43:08.165Z,1008.0
2017-06-22T00:44:09.998Z,1008.0
2017-06-22T00:45:11.713Z,1007.9
2017-06-22T00:46:13.513Z,1007.9
2017-06-22T00:47:15.250Z,1007.9
2017-06-22T00:48:17.129Z,1007.9
2017-06-22T00:49:18.932Z,1008.0
2017-06-22T00:50:21.656Z,1007.9
2017-06-22T00:51:23.459Z,1007.9
2017-06-22T00:52:25.374Z,1007.9
2017-06-22T00:53:27.251Z,1007.9
2017-06-22T00:54:29.033Z,1007.9
2017-06-22T00:55:30.794Z,1008.0
2017-06-22T00:56:32.629Z,1008.0
2017-06-22T00:57:34.295Z,1008.0
2017-06-22T00:58:36.140Z,1007.9
2017-06-22T00:59:37.937Z,1008.0
2017-06-22T01:00:39.754Z,1007.9
2017-06-22T01:01:41.619Z,1007.9
2017-06-22T01:02:43.449Z,1007.8
2017-06-22T01:03:45.131Z,1007.9
2017-06-22T01:04:47.925Z,1007.9
2017-06-22T01:05:49.718Z,1007.9
2017-06-22T01:06:51.468Z,1007.9
2017-06-22T01:07:53.239Z,1007.9
2017-06-22T01:08:56.079Z,1007.9
2017-06-22T01:09:57.784Z,1007.9
2017-06-22T01:10:59.585Z,1007.9
2017-06-22T01:12:01.346Z,1007.9
2017-06-22T01:13:04.146Z,1007.9
2017-06-22T01:14:05.901Z,1008.0
2017-06-22T01:15:07.674Z,1007.9
2017-06-22T01:16:09.405Z,1007.9
2017-06-22T01:17:11.288Z,1008.0
2017-06-22T01:18:13.033Z,1008.0
2017-06-22T01:19:14.828Z,1007.9
2017-06-22T01:20:16.580Z,1008.0
2017-06-22T01:21:18.384Z,1008.0
2017-06-22T01:22:20.063Z,1008.0
2017-06-22T01:23:22.185Z,1008.0
2017-06-22T01:24:23.969Z,1008.0
2017-06-22T01:25:26.792Z,1008.0
2017-06-22T01:26:28.547Z,1007.9
2017-06-22T01:27:30.367Z,1007.9
2017-06-22T01:28:32.160Z,1007.9
2017-06-22T01:29:33.907Z,1007.9
2017-06-22T01:30:35.639Z,1007.9
2017-06-22T01:31:38.525Z,1007.9
2017-06-22T01:32:40.202Z,1007.9
2017-06-22T01:33:42.019Z,1007.9
2017-06-22T01:34:43.788Z,1007.9
2017-06-22T01:35:45.520Z,1007.9
2017-06-22T01:36:47.304Z,1007.9
2017-06-22T01:37:50.120Z,1007.9
2017-06-22T01:38:51.849Z,1007.9
2017-06-22T01:39:53.721Z,1007.9
2017-06-22T01:40:55.480Z,1007.9
2017-06-22T01:41:57.226Z,1007.9
2017-06-22T01:42:58.998Z,1007.9
2017-06-22T01:44:00.827Z,1007.8
2017-06-22T01:45:02.533Z,1007.8
2017-06-22T01:46:04.373Z,1007.8
2017-06-22T01:47:06.117Z,1007.8
2017-06-22T01:48:08.847Z,1007.8
2017-06-22T01:49:10.588Z,1007.7
2017-06-22T01:50:14.479Z,1007.7
2017-06-22T01:51:16.207Z,1007.7
2017-06-22T01:52:18.076Z,1007.7
2017-06-22T01:53:19.814Z,1007.7
2017-06-22T01:54:21.575Z,1007.7
2017-06-22T01:55:23.404Z,1007.7
2017-06-22T01:56:25.272Z,1007.7
2017-06-22T01:57:26.937Z,1007.7
2017-06-22T01:58:29.738Z,1007.6
2017-06-22T01:59:31.495Z,1007.6
2017-06-22T02:00:33.679Z,1007.6
2017-06-22T02:01:35.344Z,1007.6
2017-06-22T02:02:37.143Z,1007.6
2017-06-22T02:03:38.884Z,1007.6
2017-06-22T02:04:40.677Z,1007.6
2017-06-22T02:05:42.430Z,1007.6
2017-06-22T02:06:45.293Z,1007.6
2017-06-22T02:07:46.955Z,1007.6
2017-06-22T02:08:50.801Z,1007.5
2017-06-22T02:09:52.561Z,1007.5
2017-06-22T02:10:54.322Z,1007.5
2017-06-22T02:11:56.066Z,1007.5
2017-06-22T02:12:57.905Z,1007.4
2017-06-22T02:13:59.643Z,1007.4
2017-06-22T02:15:01.511Z,1007.4
2017-06-22T02:16:03.247Z,1007.4
2017-06-22T02:17:05.027Z,1007.5
2017-06-22T02:18:06.756Z,1007.5
2017-06-22T02:19:08.736Z,1007.5
2017-06-22T02:20:10.434Z,1007.5
2017-06-22T02:21:13.226Z,1007.4
2017-06-22T02:22:14.991Z,1007.5
2017-06-22T02:23:17.160Z,1007.4
2017-06-22T02:24:18.874Z,1007.4
2017-06-22T02:25:20.713Z,1007.4
2017-06-22T02:26:22.498Z,1007.4
2017-06-22T02:27:24.353Z,1007.4
2017-06-22T02:28:26.097Z,1007.4
2017-06-22T02:29:27.907Z,1007.4
2017-06-22T02:30:29.653Z,1007.4
2017-06-22T02:31:31.514Z,1007.3
2017-06-22T02:32:33.246Z,1007.3
2017-06-22T02:33:37.075Z,1007.3
2017-06-22T02:34:38.831Z,1007.3
2017-06-22T02:35:40.654Z,1007.3
2017-06-22T02:36:42.392Z,1007.3
2017-06-22T02:37:44.322Z,1007.3
2017-06-22T02:38:46.063Z,1007.3
2017-06-22T02:39:47.852Z,1007.3
2017-06-22T02:40:49.598Z,1007.2
2017-06-22T02:41:51.424Z,1007.2
2017-06-22T02:42:53.162Z,1007.3
2017-06-22T02:43:54.901Z,1007.2
2017-06-22T02:44:56.687Z,1007.2
2017-06-22T02:45:58.536Z,1007.2
2017-06-22T02:47:00.258Z,1007.2
2017-06-22T02:48:02.013Z,1007.3
2017-06-22T02:49:03.764Z,1007.2
2017-06-22T02:50:05.596Z,1007.2
2017-06-22T02:51:07.278Z,1007.3
2017-06-22T02:52:09.146Z,1007.2
2017-06-22T02:53:10.910Z,1007.2
2017-06-22T02:54:12.737Z,1007.2
2017-06-22T02:55:14.488Z,1007.2
2017-06-22T02:56:17.316Z,1007.2
2017-06-22T02:57:19.090Z,1007.2
2017-06-22T02:58:20.985Z,1007.2
2017-06-22T02:59:22.670Z,1007.2
2017-06-22T03:00:24.412Z,1007.2
2017-06-22T03:01:26.200Z,1007.2
2017-06-22T03:02:27.944Z,1007.2
2017-06-22T03:03:29.712Z,1007.1
2017-06-22T03:04:31.534Z,1007.1
2017-06-22T03:05:33.235Z,1007.1
2017-06-22T03:06:35.099Z,1007.1
2017-06-22T03:07:36.871Z,1007.2
2017-06-22T03:08:38.685Z,1007.1
2017-06-22T03:09:40.426Z,1007.2
2017-06-22T03:10:42.248Z,1007.2
2017-06-22T03:11:43.943Z,1007.2
2017-06-22T03:12:46.759Z,1007.2
2017-06-22T03:13:48.510Z,1007.2
2017-06-22T03:14:50.290Z,1007.2
2017-06-22T03:15:52.025Z,1007.2
2017-06-22T03:16:53.848Z,1007.2
2017-06-22T03:17:55.580Z,1007.2
2017-06-22T03:18:58.361Z,1007.2
2017-06-22T03:20:00.189Z,1007.1
2017-06-22T03:21:01.859Z,1007.1
2017-06-22T03:22:03.617Z,1007.1
2017-06-22T03:23:06.475Z,1007.1
2017-06-22T03:24:08.255Z,1007.1
2017-06-22T03:25:10.070Z,1007.1
2017-06-22T03:26:11.763Z,1007.1
2017-06-22T03:27:13.602Z,1007.1
2017-06-22T03:28:15.364Z,1007.1
2017-06-22T03:29:17.232Z,1007.0
2017-06-22T03:30:18.914Z,1007.0
2017-06-22T03:31:20.811Z,1007.0
2017-06-22T03:32:22.547Z,1006.9
2017-06-22T03:33:24.278Z,1007.0
2017-06-22T03:34:26.020Z,1007.0
2017-06-22T03:35:28.912Z,1007.0
2017-06-22T03:36:30.601Z,1006.9
2017-06-22T03:37:32.337Z,1006.9
2017-06-22T03:38:34.197Z,1006.9
2017-06-22T03:39:35.942Z,1006.9
2017-06-22T03:40:37.680Z,1006.9
2017-06-22T03:41:39.479Z,1006.9
2017-06-22T03:42:41.220Z,1006.9
2017-06-22T03:43:43.052Z,1006.9
2017-06-22T03:44:44.807Z,1006.9
2017-06-22T03:45:46.607Z,1006.9
2017-06-22T03:46:48.672Z,1006.9
2017-06-22T03:47:50.559Z,1006.9
2017-06-22T03:48:52.380Z,1006.9
2017-06-22T03:49:54.117Z,1006.8
2017-06-22T03:50:55.847Z,1006.8
2017-06-22T03:51:57.649Z,1006.8
2017-06-22T03:52:59.394Z,1006.8
2017-06-22T03:54:01.255Z,1006.8
2017-06-22T03:55:03.010Z,1006.8
2017-06-22T03:56:04.758Z,1006.8
2017-06-22T03:57:06.678Z,1006.8
2017-06-22T03:58:08.443Z,1006.8
2017-06-22T03:59:10.116Z,1006.8
2017-06-22T04:00:12.897Z,1006.8
2017-06-22T04:01:14.673Z,1006.8
2017-06-22T04:02:16.473Z,1006.9
2017-06-22T04:03:18.237Z,1006.9
2017-06-22T04:04:20.044Z,1006.9
2017-06-22T04:05:21.729Z,1006.9
2017-06-22T04:06:23.518Z,1006.9
2017-06-22T04:07:25.327Z,1006.9
2017-06-22T04:08:27.100Z,1006.9
2017-06-22T04:09:28.861Z,1006.9
2017-06-22T04:10:30.614Z,1006.9
2017-06-22T04:11:32.407Z,1006.8
2017-06-22T04:12:34.191Z,1006.8
2017-06-22T04:13:35.981Z,1006.9
2017-06-22T04:14:37.736Z,1006.8
2017-06-22T04:15:39.500Z,1006.9
2017-06-22T04:16:41.314Z,1006.9
2017-06-22T04:17:43.078Z,1006.9
2017-06-22T04:18:44.962Z,1006.9
2017-06-22T04:19:46.705Z,1006.9
2017-06-22T04:20:48.476Z,1006.9
2017-06-22T04:21:50.248Z,1006.9
2017-06-22T04:22:52.100Z,1006.9
2017-06-22T04:23:53.801Z,1006.9
2017-06-22T04:24:55.573Z,1006.8
2017-06-22T04:25:57.354Z,1006.8
2017-06-22T04:26:59.104Z,1006.9
2017-06-22T04:28:00.844Z,1006.8
2017-06-22T04:29:02.659Z,1006.8
2017-06-22T04:30:04.406Z,1006.8
2017-06-22T04:31:06.192Z,1006.8
2017-06-22T04:32:07.961Z,1006.8
2017-06-22T04:33:09.778Z,1006.8
2017-06-22T04:34:11.526Z,1006.8
2017-06-22T04:35:13.373Z,1006.8
2017-06-22T04:36:15.048Z,1006.8
2017-06-22T04:37:16.807Z,1006.8
2017-06-22T04:38:18.568Z,1006.8
2017-06-22T04:39:20.308Z,1006.8
2017-06-22T04:40:22.204Z,1006.8
2017-06-22T04:41:23.966Z,1006.8
2017-06-22T04:42:25.723Z,1006.8
2017-06-22T04:43:27.601Z,1006.7
2017-06-22T04:44:29.417Z,1006.7
2017-06-22T04:45:31.121Z,1006.7
2017-06-22T04:46:33.531Z,1006.7
2017-06-22T04:47:35.281Z,1006.7
2017-06-22T04:48:37.021Z,1006.7
2017-06-22T04:49:38.799Z,1006.7
2017-06-22T04:50:40.536Z,1006.7
2017-06-22T04:51:42.369Z,1006.6
2017-06-22T04:52:44.132Z,1006.6
2017-06-22T04:53:45.862Z,1006.6
2017-06-22T04:54:47.610Z,1006.6
2017-06-22T04:55:49.284Z,1006.6
2017-06-22T04:56:51.049Z,1006.5
2017-06-22T04:57:52.820Z,1006.5
2017-06-22T04:58:54.632Z,1006.5
2017-06-22T04:59:56.432Z,1006.5
2017-06-22T05:00:58.195Z,1006.5
2017-06-22T05:01:59.909Z,1006.5
2017-06-22T05:03:01.599Z,1006.4
2017-06-22T05:04:03.320Z,1006.4
2017-06-22T05:05:05.110Z,1006.4
2017-06-22T05:06:07.205Z,1006.4
2017-06-22T05:07:08.912Z,1006.4
2017-06-22T05:08:10.621Z,1006.4
2017-06-22T05:09:12.353Z,1006.4
2017-06-22T05:10:14.247Z,1006.4
2017-06-22T05:11:16.100Z,1006.4
2017-06-22T05:12:17.930Z,1006.4
2017-06-22T05:13:19.719Z,1006.4
2017-06-22T05:14:21.538Z,1006.3
2017-06-22T05:15:23.328Z,1006.3
2017-06-22T05:16:25.119Z,1006.3
2017-06-22T05:17:26.914Z,1006.3
2017-06-22T05:18:28.702Z,1006.3
2017-06-22T05:19:30.455Z,1006.3
2017-06-22T05:20:32.198Z,1006.3
2017-06-22T05:21:33.982Z,1006.3
2017-06-22T05:22:35.652Z,1006.3
2017-06-22T05:23:37.309Z,1006.3
2017-06-22T05:24:39.054Z,1006.3
2017-06-22T05:25:40.818Z,1006.3
2017-06-22T05:26:42.562Z,1006.3
2017-06-22T05:27:44.395Z,1006.3
2017-06-22T05:28:46.165Z,1006.3
2017-06-22T05:29:47.956Z,1006.2
2017-06-22T05:30:49.729Z,1006.2
2017-06-22T05:31:51.595Z,1006.2
2017-06-22T05:32:53.322Z,1006.2
2017-06-22T05:33:55.086Z,1006.1
2017-06-22T05:34:56.837Z,1006.1
2017-06-22T05:35:58.584Z,1006.1
2017-06-22T05:37:00.335Z,1006.1
2017-06-22T05:38:02.066Z,1006.1
2017-06-22T05:39:03.794Z,1006.1
2017-06-22T05:40:05.480Z,1006.1
2017-06-22T05:41:07.217Z,1006.1
2017-06-22T05:42:08.934Z,1006.1
2017-06-22T05:43:10.609Z,1006.1
2017-06-22T05:44:12.350Z,1006.1
2017-06-22T05:45:14.157Z,1006.1
2017-06-22T05:46:15.921Z,1006.0
2017-06-22T05:47:17.785Z,1006.0
2017-06-22T05:48:19.529Z,1006.0
2017-06-22T05:49:21.371Z,1006.0
2017-06-22T05:50:23.129Z,1006.0
2017-06-22T05:51:24.948Z,1006.0
2017-06-22T05:52:26.778Z,1006.0
2017-06-22T05:53:28.488Z,1006.0
2017-06-22T05:54:30.225Z,1005.9
2017-06-22T05:55:32.077Z,1005.9
2017-06-22T05:56:34.139Z,1005.9
2017-06-22T05:57:36.051Z,1005.8
2017-06-22T05:58:37.874Z,1005.8
2017-06-22T05:59:39.664Z,1005.8
2017-06-22T06:00:41.330Z,1005.8
2017-06-22T06:01:43.121Z,1005.8
2017-06-22T06:02:44.882Z,1005.8
2017-06-22T06:03:47.150Z,1005.8
2017-06-22T06:04:48.820Z,1005.8
2017-06-22T06:05:50.627Z,1005.8
2017-06-22T06:06:52.367Z,1005.9
2017-06-22T06:07:54.127Z,1005.8
2017-06-22T06:08:55.875Z,1005.8
2017-06-22T06:09:57.715Z,1005.8
2017-06-22T06:10:59.414Z,1005.8
2017-06-22T06:12:01.242Z,1005.8
2017-06-22T06:13:02.934Z,1005.8
2017-06-22T06:14:04.786Z,1005.8
2017-06-22T06:15:06.531Z,1005.8
2017-06-22T06:16:08.320Z,1005.8
2017-06-22T06:17:10.041Z,1005.7
2017-06-22T06:18:11.925Z,1005.7
2017-06-22T06:19:13.656Z,1005.7
2017-06-22T06:20:15.426Z,1005.7
2017-06-22T06:21:17.209Z,1005.7
2017-06-22T06:22:18.997Z,1005.6
2017-06-22T06:23:20.731Z,1005.6
2017-06-22T06:24:22.494Z,1005.7
2017-06-22T06:25:24.241Z,1005.7
2017-06-22T06:26:26.106Z,1005.7
2017-06-22T06:27:27.888Z,1005.7
2017-06-22T06:28:29.690Z,1005.7
2017-06-22T06:29:31.432Z,1005.7
2017-06-22T06:30:33.280Z,1005.6
2017-06-22T06:31:35.024Z,1005.6
2017-06-22T06:32:36.765Z,1005.7
2017-06-22T06:33:38.504Z,1005.6
2017-06-22T06:34:40.270Z,1005.7
2017-06-22T06:35:42.021Z,1005.7
2017-06-22T06:36:43.887Z,1005.7
2017-06-22T06:37:45.638Z,1005.7
2017-06-22T06:38:48.425Z,1005.7
2017-06-22T06:39:50.176Z,1005.7
2017-06-22T06:40:51.983Z,1005.7
2017-06-22T06:41:53.754Z,1005.7
2017-06-22T06:42:55.494Z,1005.7
2017-06-22T06:43:57.274Z,1005.6
2017-06-22T06:44:59.089Z,1005.6
2017-06-22T06:46:00.820Z,1005.6
2017-06-22T06:47:02.673Z,1005.6
2017-06-22T06:48:04.360Z,1005.6
2017-06-22T06:49:06.041Z,1005.6
2017-06-22T06:50:07.710Z,1005.5
2017-06-22T06:51:09.433Z,1005.6
2017-06-22T06:52:11.199Z,1005.6
2017-06-22T06:53:12.929Z,1005.5
2017-06-22T06:54:14.747Z,1005.6
2017-06-22T06:55:16.569Z,1005.5
2017-06-22T06:56:18.304Z,1005.5
2017-06-22T06:57:20.044Z,1005.6
2017-06-22T06:58:21.787Z,1005.6
2017-06-22T06:59:23.541Z,1005.6
2017-06-22T07:00:25.301Z,1005.6
2017-06-22T07:01:26.985Z,1005.6
2017-06-22T07:02:28.764Z,1005.6
2017-06-22T07:03:30.532Z,1005.5
2017-06-22T07:04:32.254Z,1005.5
2017-06-22T07:05:34.014Z,1005.5
2017-06-22T07:06:35.854Z,1005.5
2017-06-22T07:07:37.577Z,1005.5
2017-06-22T07:08:39.322Z,1005.5
2017-06-22T07:09:41.059Z,1005.5
2017-06-22T07:10:42.803Z,1005.5
2017-06-22T07:11:44.543Z,1005.5
2017-06-22T07:12:46.216Z,1005.5
2017-06-22T07:13:47.949Z,1005.5
2017-06-22T07:14:49.712Z,1005.5
2017-06-22T07:15:51.500Z,1005.5
2017-06-22T07:16:53.236Z,1005.5
2017-06-22T07:17:55.025Z,1005.5
2017-06-22T07:18:56.773Z,1005.4
2017-06-22T07:19:58.641Z,1005.5
2017-06-22T07:21:00.387Z,1005.4
2017-06-22T07:22:02.136Z,1005.5
2017-06-22T07:23:03.957Z,1005.4
2017-06-22T07:24:05.673Z,1005.5
2017-06-22T07:25:07.458Z,1005.4
2017-06-22T07:26:09.213Z,1005.4
2017-06-22T07:27:10.991Z,1005.5
2017-06-22T07:28:12.685Z,1005.4
2017-06-22T07:29:14.467Z,1005.4
2017-06-22T07:30:16.167Z,1005.4
2017-06-22T07:31:17.915Z,1005.4
2017-06-22T07:32:19.705Z,1005.4
2017-06-22T07:33:21.447Z,1005.3
2017-06-22T07:34:23.190Z,1005.4
2017-06-22T07:35:24.940Z,1005.3
2017-06-22T07:36:26.691Z,1005.3
2017-06-22T07:37:28.433Z,1005.3
2017-06-22T07:38:30.212Z,1005.2
2017-06-22T07:39:31.944Z,1005.3
2017-06-22T07:40:33.708Z,1005.2
2017-06-22T07:41:35.516Z,1005.2
2017-06-22T07:42:37.274Z,1005.2
2017-06-22T07:43:39.046Z,1005.2
2017-06-22T07:44:40.836Z,1005.2
2017-06-22T07:45:42.642Z,1005.2
2017-06-22T07:46:44.459Z,1005.2
2017-06-22T07:47:46.216Z,1005.2
2017-06-22T07:48:47.952Z,1005.3
2017-06-22T07:49:49.712Z,1005.2
2017-06-22T07:50:51.399Z,1005.2
2017-06-22T07:51:53.278Z,1005.2
2017-06-22T07:52:55.049Z,1005.1
2017-06-22T07:53:56.759Z,1005.2
2017-06-22T07:54:58.713Z,1005.1
2017-06-22T07:56:00.897Z,1005.1
2017-06-22T07:57:02.668Z,1005.1
2017-06-22T07:58:04.511Z,1005.1
2017-06-22T07:59:06.238Z,1005.1
2017-06-22T08:00:08.015Z,1005.1
2017-06-22T08:01:09.756Z,1005.0
2017-06-22T08:02:11.526Z,1005.0
2017-06-22T08:03:13.310Z,1005.1
2017-06-22T08:04:15.017Z,1005.0
2017-06-22T08:05:16.893Z,1005.0
2017-06-22T08:06:18.678Z,1005.0
2017-06-22T08:07:20.495Z,1005.0
2017-06-22T08:08:22.241Z,1005.0
2017-06-22T08:09:24.002Z,1005.0
2017-06-22T08:10:25.784Z,1005.0
2017-06-22T08:11:27.524Z,1005.0
2017-06-22T08:12:29.414Z,1005.0
2017-06-22T08:13:31.196Z,1005.0
2017-06-22T08:14:32.968Z,1005.0
2017-06-22T08:15:34.751Z,1005.0
2017-06-22T08:16:36.616Z,1004.9
2017-06-22T08:17:38.298Z,1004.9
2017-06-22T08:18:40.266Z,1004.8
2017-06-22T08:19:42.012Z,1004.8
2017-06-22T08:20:43.855Z,1004.8
2017-06-22T08:21:45.678Z,1004.8
2017-06-22T08:22:47.462Z,1004.7
2017-06-22T08:23:49.635Z,1004.7
2017-06-22T08:24:51.447Z,1004.7
2017-06-22T08:25:53.318Z,1004.7
2017-06-22T08:26:55.205Z,1004.7
2017-06-22T08:27:57.054Z,1004.7
2017-06-22T08:28:59.203Z,1004.7
2017-06-22T08:30:01.013Z,1004.6
2017-06-22T08:31:02.793Z,1004.6
2017-06-22T08:32:04.588Z,1004.6
2017-06-22T08:33:06.333Z,1004.6
2017-06-22T08:34:08.090Z,1004.6
2017-06-22T08:35:09.781Z,1004.6
2017-06-22T08:36:11.672Z,1004.6
2017-06-22T08:37:13.390Z,1004.6
2017-06-22T08:38:15.162Z,1004.6
2017-06-22T08:39:16.945Z,1004.6
2017-06-22T08:40:18.797Z,1004.6
2017-06-22T08:41:20.848Z,1004.6
2017-06-22T08:42:23.025Z,1004.6
2017-06-22T08:43:24.886Z,1004.5
2017-06-22T08:44:26.701Z,1004.5
2017-06-22T08:45:28.473Z,1004.6
2017-06-22T08:46:30.215Z,1004.5
2017-06-22T08:47:32.983Z,1004.7
2017-06-22T08:48:34.683Z,1004.5
2017-06-22T08:49:36.479Z,1004.5
2017-06-22T08:50:38.296Z,1004.5
2017-06-22T08:51:39.987Z,1004.4
2017-06-22T08:52:41.731Z,1004.5
2017-06-22T08:53:43.576Z,1004.5
2017-06-22T08:54:45.325Z,1004.5
2017-06-22T08:55:47.225Z,1004.5
2017-06-22T08:56:49.077Z,1004.4
2017-06-22T08:57:50.744Z,1004.4
2017-06-22T08:58:52.500Z,1004.4
2017-06-22T08:59:54.318Z,1004.4
2017-06-22T09:00:55.999Z,1004.4
2017-06-22T09:01:57.831Z,1004.3
2017-06-22T09:02:59.594Z,1004.4
2017-06-22T09:04:01.335Z,1004.4
2017-06-22T09:05:03.018Z,1004.3
2017-06-22T09:06:04.759Z,1004.3
2017-06-22T09:07:06.558Z,1004.3
2017-06-22T09:08:08.329Z,1004.3
2017-06-22T09:09:10.008Z,1004.4
2017-06-22T09:10:11.691Z,1004.2
2017-06-22T09:11:13.446Z,1004.3
2017-06-22T09:12:15.202Z,1004.3
2017-06-22T09:13:17.464Z,1004.3
2017-06-22T09:14:19.197Z,1004.2
2017-06-22T09:15:20.869Z,1004.3
2017-06-22T09:16:22.626Z,1004.3
2017-06-22T09:17:24.777Z,1004.2
2017-06-22T09:18:26.865Z,1004.3
2017-06-22T09:19:28.858Z,1004.3
2017-06-22T09:20:30.644Z,1004.3
2017-06-22T09:21:32.337Z,1004.3
2017-06-22T09:22:33.987Z,1004.2
2017-06-22T09:23:35.716Z,1004.2
2017-06-22T09:24:37.591Z,1004.2
2017-06-22T09:25:39.355Z,1004.2
2017-06-22T09:26:42.979Z,1004.2
2017-06-22T09:27:44.641Z,1004.2
2017-06-22T09:28:46.456Z,1004.1
2017-06-22T09:29:48.153Z,1004.2
2017-06-22T09:30:49.898Z,1004.2
2017-06-22T09:31:51.764Z,1004.2
2017-06-22T09:32:53.473Z,1004.3
2017-06-22T09:33:55.332Z,1004.1
2017-06-22T09:34:56.999Z,1004.2
2017-06-22T09:35:58.751Z,1004.1
2017-06-22T09:37:00.654Z,1004.1
2017-06-22T09:38:02.458Z,1004.1
2017-06-22T09:39:04.227Z,1004.1
2017-06-22T09:40:05.948Z,1004.1
2017-06-22T09:41:07.727Z,1004.1
2017-06-22T09:42:09.421Z,1004.1
2017-06-22T09:43:11.182Z,1004.1
2017-06-22T09:44:12.908Z,1004.1
2017-06-22T09:45:14.855Z,1004.0
2017-06-22T09:46:16.531Z,1004.1
2017-06-22T09:47:18.226Z,1004.1
2017-06-22T09:48:19.971Z,1004.1
2017-06-22T09:49:21.737Z,1004.2
2017-06-22T09:50:23.450Z,1004.1
2017-06-22T09:51:25.201Z,1004.0
2017-06-22T09:52:27.034Z,1004.0
2017-06-22T09:53:28.756Z,1004.1
2017-06-22T09:54:30.511Z,1004.1
2017-06-22T09:55:32.263Z,1004.1
2017-06-22T09:56:34.221Z,1004.0
2017-06-22T09:57:36.002Z,1004.1
2017-06-22T09:58:37.775Z,1004.0
2017-06-22T09:59:39.489Z,1004.1
2017-06-22T10:00:41.217Z,1004.0
2017-06-22T10:01:42.985Z,1004.0
2017-06-22T10:02:45.000Z,1004.0
2017-06-22T10:03:46.766Z,1004.0
2017-06-22T10:04:48.661Z,1004.1
2017-06-22T10:05:50.426Z,1004.0
2017-06-22T10:06:54.437Z,1004.1
2017-06-22T10:07:56.216Z,1004.1
2017-06-22T10:08:57.953Z,1004.0
2017-06-22T10:10:00.099Z,1004.1
2017-06-22T10:11:06.616Z,1004.1
2017-06-22T10:12:08.408Z,1004.1
2017-06-22T10:13:12.265Z,1004.1
2017-06-22T10:14:13.979Z,1004.1
2017-06-22T10:15:15.980Z,1004.1
2017-06-22T10:16:17.741Z,1004.1
2017-06-22T10:17:20.696Z,1004.0
2017-06-22T10:18:22.359Z,1004.0
2017-06-22T10:19:24.189Z,1004.1
2017-06-22T10:20:25.984Z,1004.1
2017-06-22T10:21:27.786Z,1004.1
2017-06-22T10:22:29.513Z,1004.0
2017-06-22T10:23:32.320Z,1004.0
2017-06-22T10:24:34.076Z,1004.0
2017-06-22T10:25:35.863Z,1004.0
2017-06-22T10:26:37.585Z,1004.0
2017-06-22T10:27:40.414Z,1004.0
2017-06-22T10:28:42.157Z,1004.0
2017-06-22T10:29:49.042Z,1004.0
2017-06-22T10:30:50.781Z,1004.0
2017-06-22T10:31:52.539Z,1004.0
2017-06-22T10:32:54.548Z,1003.9
2017-06-22T10:33:56.241Z,1003.9
2017-06-22T10:34:58.594Z,1003.9
2017-06-22T10:36:00.348Z,1003.9
2017-06-22T10:37:02.221Z,1004.0
2017-06-22T10:38:03.881Z,1004.0
2017-06-22T10:39:07.762Z,1003.9
2017-06-22T10:40:09.478Z,1003.9
2017-06-22T10:41:11.337Z,1003.9
2017-06-22T10:42:14.135Z,1003.9
2017-06-22T10:43:18.336Z,1003.8
2017-06-22T10:44:20.285Z,1003.8
2017-06-22T10:45:22.103Z,1003.7
2017-06-22T10:46:24.128Z,1003.7
2017-06-22T10:47:30.618Z,1003.7
2017-06-22T10:48:34.545Z,1003.7
2017-06-22T10:49:38.337Z,1003.7
2017-06-22T10:50:40.056Z,1003.7
2017-06-22T10:51:43.362Z,1003.7
2017-06-22T10:52:45.131Z,1003.7
2017-06-22T10:53:47.959Z,1003.7
2017-06-22T10:54:49.823Z,1003.7
2017-06-22T10:55:52.214Z,1003.7
2017-06-22T10:56:54.021Z,1003.7
2017-06-22T10:57:56.429Z,1003.6
2017-06-22T10:58:58.054Z,1003.6
2017-06-22T10:59:59.876Z,1003.7
2017-06-22T11:01:01.587Z,1003.6
2017-06-22T11:02:04.335Z,1003.6
2017-06-22T11:03:06.095Z,1003.6
2017-06-22T11:04:13.599Z,1003.6
2017-06-22T11:05:15.803Z,1003.7
2017-06-22T11:06:18.601Z,1003.6
2017-06-22T11:07:20.346Z,1003.6
2017-06-22T11:08:22.109Z,1003.6
2017-06-22T11:09:23.877Z,1003.7
2017-06-22T11:10:27.253Z,1003.7
2017-06-22T11:11:28.982Z,1003.7
2017-06-22T11:12:32.849Z,1003.7
2017-06-22T11:13:34.910Z,1003.7
2017-06-22T11:14:36.659Z,1003.6
2017-06-22T11:15:38.421Z,1003.6
2017-06-22T11:16:41.347Z,1003.6
2017-06-22T11:17:43.012Z,1003.7
2017-06-22T11:18:44.932Z,1003.6
2017-06-22T11:19:46.682Z,1003.7
2017-06-22T11:20:49.465Z,1003.6
2017-06-22T11:21:51.206Z,1003.7
2017-06-22T11:22:53.105Z,1003.7
2017-06-22T11:23:55.027Z,1003.7
2017-06-22T11:24:57.961Z,1003.6
2017-06-22T11:25:59.803Z,1003.7
2017-06-22T11:27:01.574Z,1003.6
2017-06-22T11:28:04.182Z,1003.7
2017-06-22T11:29:08.025Z,1003.7
2017-06-22T11:30:09.829Z,1003.6
2017-06-22T11:31:11.593Z,1003.6
2017-06-22T11:32:13.359Z,1003.6
2017-06-22T11:33:17.260Z,1003.5
2017-06-22T11:34:18.939Z,1003.6
2017-06-22T11:35:20.914Z,1003.5
2017-06-22T11:36:22.790Z,1003.5
2017-06-22T11:37:24.648Z,1003.5
2017-06-22T11:38:26.330Z,1003.5
2017-06-22T11:39:28.191Z,1003.5
2017-06-22T11:40:30.267Z,1003.5
2017-06-22T11:41:33.035Z,1003.5
2017-06-22T11:42:34.879Z,1003.4
2017-06-22T11:43:41.678Z,1003.4
2017-06-22T11:44:43.456Z,1003.4
2017-06-22T11:45:47.336Z,1003.4
2017-06-22T11:46:49.200Z,1003.4
2017-06-22T11:47:53.203Z,1003.4
2017-06-22T11:48:54.940Z,1003.4
2017-06-22T11:49:56.806Z,1003.4
2017-06-22T11:50:58.580Z,1003.4
2017-06-22T11:52:01.406Z,1003.5
2017-06-22T11:53:03.214Z,1003.4
2017-06-22T11:54:04.986Z,1003.4
2017-06-22T11:55:06.835Z,1003.4
2017-06-22T11:56:10.616Z,1003.4
2017-06-22T11:57:12.328Z,1003.3
2017-06-22T11:58:15.203Z,1003.4
2017-06-22T11:59:17.099Z,1003.4
2017-06-22T12:00:18.955Z,1003.4
2017-06-22T12:01:21.116Z,1003.2
2017-06-22T12:02:29.740Z,1003.3
2017-06-22T12:03:31.523Z,1003.4
2017-06-22T12:04:33.358Z,1003.3
2017-06-22T12:05:36.250Z,1003.3
2017-06-22T12:06:38.184Z,1003.3
2017-06-22T12:07:44.737Z,1003.3
2017-06-22T12:08:46.475Z,1003.3
2017-06-22T12:09:49.429Z,1003.4
2017-06-22T12:10:51.338Z,1003.4
2017-06-22T12:11:53.155Z,1003.3
2017-06-22T12:12:54.898Z,1003.3
2017-06-22T12:14:07.877Z,1003.3
2017-06-22T12:15:09.679Z,1003.3
2017-06-22T12:16:12.424Z,1003.4
2017-06-22T12:17:14.186Z,1003.3
2017-06-22T12:18:16.996Z,1003.3
2017-06-22T12:19:18.747Z,1003.3
2017-06-22T12:20:20.605Z,1003.3
2017-06-22T12:21:22.467Z,1003.3
2017-06-22T12:22:35.072Z,1003.2
2017-06-22T12:23:36.826Z,1003.2
2017-06-22T12:24:45.217Z,1003.3
2017-06-22T12:25:47.010Z,1003.2
2017-06-22T12:26:53.636Z,1003.2
2017-06-22T12:27:55.405Z,1003.2
2017-06-22T12:28:57.209Z,1003.3
2017-06-22T12:29:58.927Z,1003.2
2017-06-22T12:31:13.748Z,1003.2
2017-06-22T12:32:15.594Z,1003.1
2017-06-22T12:33:17.331Z,1003.2
2017-06-22T12:34:19.156Z,1003.1
2017-06-22T12:35:23.007Z,1003.1
2017-06-22T12:36:24.744Z,1003.1
2017-06-22T12:37:26.679Z,1003.1
2017-06-22T12:38:28.471Z,1003.1
2017-06-22T12:39:32.689Z,1003.0
2017-06-22T12:40:34.497Z,1003.0
2017-06-22T12:41:47.216Z,1003.0
2017-06-22T12:42:49.035Z,1003.1
2017-06-22T12:43:51.769Z,1003.0
2017-06-22T12:44:53.608Z,1003.0
2017-06-22T12:45:55.491Z,1002.9
2017-06-22T12:46:57.239Z,1002.9
2017-06-22T12:48:01.308Z,1002.9
2017-06-22T12:49:03.122Z,1002.8
2017-06-22T12:50:04.881Z,1002.8
2017-06-22T12:51:06.697Z,1002.8
2017-06-22T12:52:10.595Z,1002.8
2017-06-22T12:53:12.344Z,1002.8
2017-06-22T12:54:14.181Z,1002.8